createdAt,value
2018-09-29T00:01:52.759Z,1.67
2018-09-29T00:04:05.779Z,1.70
2018-09-29T00:06:18.032Z,2.07
2018-09-29T00:08:30.276Z,1.70
2018-09-29T00:10:42.559Z,1.93
2018-09-29T00:12:54.751Z,1.70
2018-09-29T00:15:07.426Z,1.50
2018-09-29T00:17:19.678Z,1.40
2018-09-29T00:19:32.956Z,1.60
2018-09-29T00:21:45.242Z,1.50
2018-09-29T00:23:57.428Z,2.10
2018-09-29T00:26:09.677Z,1.43
2018-09-29T00:28:21.967Z,1.67
2018-09-29T00:30:34.192Z,1.87
2018-09-29T00:32:46.415Z,1.37
2018-09-29T00:34:58.619Z,1.60
2018-09-29T00:37:10.907Z,1.40
2018-09-29T00:39:23.113Z,1.63
2018-09-29T00:41:35.347Z,1.30
2018-09-29T00:43:47.554Z,1.70
2018-09-29T00:45:59.767Z,1.70
2018-09-29T00:48:11.995Z,1.47
2018-09-29T00:50:24.179Z,1.53
2018-09-29T00:52:36.360Z,1.30
2018-09-29T00:54:48.557Z,1.57
2018-09-29T00:57:00.792Z,1.70
2018-09-29T00:59:13.003Z,1.30
2018-09-29T01:01:25.200Z,1.60
2018-09-29T01:03:37.397Z,2.03
2018-09-29T01:05:49.599Z,1.43
2018-09-29T01:08:01.794Z,1.37
2018-09-29T01:10:14.035Z,1.70
2018-09-29T01:12:26.200Z,1.40
2018-09-29T01:14:38.386Z,1.30
2018-09-29T01:16:50.624Z,1.80
2018-09-29T01:19:02.821Z,1.57
2018-09-29T01:21:15.039Z,1.40
2018-09-29T01:23:27.225Z,1.80
2018-09-29T01:25:39.417Z,1.57
2018-09-29T01:27:51.595Z,1.20
2018-09-29T01:30:03.879Z,1.73
2018-09-29T01:32:16.051Z,1.60
2018-09-29T01:34:28.239Z,1.13
2018-09-29T01:36:40.468Z,1.50
2018-09-29T01:38:52.644Z,1.60
2018-09-29T01:41:04.857Z,1.30
2018-09-29T01:43:17.091Z,1.03
2018-09-29T01:45:29.356Z,1.43
2018-09-29T01:47:41.542Z,1.30
2018-09-29T01:49:53.738Z,1.40
2018-09-29T01:52:06.010Z,1.53
2018-09-29T01:54:18.205Z,1.17
2018-09-29T01:56:30.497Z,1.53
2018-09-29T01:58:42.675Z,1.50
2018-09-29T02:00:54.864Z,1.23
2018-09-29T02:03:11.190Z,0.90
2018-09-29T02:05:23.368Z,1.30
2018-09-29T02:07:35.568Z,1.13
2018-09-29T02:09:47.972Z,1.27
2018-09-29T02:12:00.183Z,1.50
2018-09-29T02:14:12.364Z,1.47
2018-09-29T02:16:24.564Z,0.80
2018-09-29T02:18:36.787Z,1.33
2018-09-29T02:20:48.955Z,1.17
2018-09-29T02:23:01.164Z,1.43
2018-09-29T02:25:13.351Z,1.17
2018-09-29T02:27:25.548Z,1.30
2018-09-29T02:29:37.775Z,1.30
2018-09-29T02:31:49.946Z,1.53
2018-09-29T02:34:02.136Z,1.27
2018-09-29T02:36:14.363Z,1.37
2018-09-29T02:38:26.540Z,1.40
2018-09-29T02:40:38.726Z,1.40
2018-09-29T02:42:50.933Z,1.20
2018-09-29T02:45:03.153Z,1.43
2018-09-29T02:47:15.363Z,1.40
2018-09-29T02:49:27.562Z,0.93
2018-09-29T02:51:39.792Z,1.43
2018-09-29T02:53:52.033Z,1.33
2018-09-29T02:56:04.255Z,1.37
2018-09-29T02:58:16.476Z,1.40
2018-09-29T03:00:28.622Z,1.20
2018-09-29T03:02:40.809Z,1.77
2018-09-29T03:04:53.271Z,1.20
2018-09-29T03:07:05.473Z,1.20
2018-09-29T03:09:17.691Z,1.03
2018-09-29T03:11:29.871Z,1.40
2018-09-29T03:13:42.116Z,1.17
2018-09-29T03:15:54.295Z,1.00
2018-09-29T03:18:06.487Z,1.20
2018-09-29T03:20:18.704Z,1.33
2018-09-29T03:22:30.902Z,1.13
2018-09-29T03:24:43.070Z,1.00
2018-09-29T03:26:55.255Z,1.00
2018-09-29T03:29:07.450Z,1.67
2018-09-29T03:31:19.720Z,1.00
2018-09-29T03:33:31.890Z,1.20
2018-09-29T03:35:44.117Z,1.13
2018-09-29T03:37:56.311Z,1.13
2018-09-29T03:40:09.153Z,1.60
2018-09-29T03:42:21.363Z,1.60
2018-09-29T03:44:33.560Z,1.33
2018-09-29T03:46:45.795Z,1.60
2018-09-29T03:48:57.960Z,1.10
2018-09-29T03:51:10.163Z,1.67
2018-09-29T03:53:22.424Z,1.37
2018-09-29T03:55:34.642Z,1.83
2018-09-29T03:57:46.830Z,1.37
2018-09-29T03:59:59.026Z,1.37
2018-09-29T04:02:11.253Z,1.20
2018-09-29T04:04:23.435Z,1.27
2018-09-29T04:06:35.612Z,1.50
2018-09-29T04:08:47.823Z,1.37
2018-09-29T04:11:00.034Z,1.73
2018-09-29T04:13:12.236Z,1.40
2018-09-29T04:15:24.425Z,1.37
2018-09-29T04:17:36.680Z,0.87
2018-09-29T04:19:48.930Z,1.40
2018-09-29T04:22:01.112Z,1.60
2018-09-29T04:24:13.743Z,1.10
2018-09-29T04:26:25.931Z,1.60
2018-09-29T04:28:38.159Z,1.60
2018-09-29T04:30:50.377Z,1.33
2018-09-29T04:33:02.597Z,1.20
2018-09-29T04:35:14.826Z,1.40
2018-09-29T04:37:26.992Z,1.40
2018-09-29T04:39:39.198Z,0.97
2018-09-29T04:41:51.455Z,1.63
2018-09-29T04:44:03.695Z,1.30
2018-09-29T04:46:15.867Z,1.23
2018-09-29T04:48:28.035Z,1.30
2018-09-29T04:50:40.242Z,1.30
2018-09-29T04:52:52.454Z,1.20
2018-09-29T04:55:04.923Z,1.10
2018-09-29T04:57:17.918Z,1.40
2018-09-29T04:59:30.148Z,1.70
2018-09-29T05:01:42.356Z,1.20
2018-09-29T05:03:54.563Z,1.53
2018-09-29T05:06:07.051Z,1.23
2018-09-29T05:08:19.230Z,1.40
2018-09-29T05:10:31.439Z,1.30
2018-09-29T05:12:43.683Z,1.50
2018-09-29T05:14:55.944Z,1.27
2018-09-29T05:17:08.179Z,1.07
2018-09-29T05:19:20.370Z,1.27
2018-09-29T05:21:32.580Z,1.33
2018-09-29T05:23:45.013Z,1.00
2018-09-29T05:25:57.242Z,1.13
2018-09-29T05:28:10.420Z,1.40
2018-09-29T05:30:22.605Z,1.27
2018-09-29T05:32:34.811Z,1.47
2018-09-29T05:34:47.119Z,1.23
2018-09-29T05:36:59.314Z,1.40
2018-09-29T05:39:11.567Z,1.63
2018-09-29T05:41:23.783Z,1.00
2018-09-29T05:43:36.053Z,1.10
2018-09-29T05:45:48.534Z,1.10
2018-09-29T05:48:00.745Z,1.20
2018-09-29T05:50:12.984Z,1.17
2018-09-29T05:52:25.186Z,1.60
2018-09-29T05:54:37.431Z,1.03
2018-09-29T05:56:49.639Z,1.57
2018-09-29T05:59:01.872Z,1.30
2018-09-29T06:01:14.083Z,1.50
2018-09-29T06:03:26.265Z,1.20
2018-09-29T06:05:38.586Z,1.90
2018-09-29T06:07:50.780Z,1.63
2018-09-29T06:10:03.090Z,1.13
2018-09-29T06:12:15.294Z,1.53
2018-09-29T06:14:27.522Z,1.20
2018-09-29T06:16:39.803Z,1.13
2018-09-29T06:18:52.175Z,1.20
2018-09-29T06:21:05.034Z,1.10
2018-09-29T06:23:23.236Z,1.40
2018-09-29T06:25:39.077Z,1.37
2018-09-29T06:27:51.360Z,1.10
2018-09-29T06:30:03.972Z,1.40
2018-09-29T06:32:16.175Z,1.00
2018-09-29T06:34:28.387Z,0.97
2018-09-29T06:36:40.674Z,1.30
2018-09-29T06:38:52.899Z,1.33
2018-09-29T06:41:05.175Z,1.10
2018-09-29T06:43:17.390Z,1.30
2018-09-29T06:45:29.632Z,0.90
2018-09-29T06:47:42.038Z,1.10
2018-09-29T06:49:54.347Z,1.30
2018-09-29T06:52:06.639Z,1.17
2018-09-29T06:54:18.899Z,1.53
2018-09-29T06:56:31.151Z,1.23
2018-09-29T06:58:43.472Z,1.13
2018-09-29T07:00:55.738Z,1.20
2018-09-29T07:03:08.013Z,1.30
2018-09-29T07:05:20.226Z,1.40
2018-09-29T07:07:32.437Z,1.20
2018-09-29T07:09:45.138Z,1.30
2018-09-29T07:11:57.403Z,1.00
2018-09-29T07:14:09.682Z,1.00
2018-09-29T07:16:21.994Z,1.07
2018-09-29T07:18:34.266Z,1.27
2018-09-29T07:20:46.506Z,1.10
2018-09-29T07:22:58.746Z,1.47
2018-09-29T07:25:10.953Z,0.87
2018-09-29T07:27:23.231Z,1.27
2018-09-29T07:29:35.467Z,1.00
2018-09-29T07:31:47.720Z,1.10
2018-09-29T07:33:59.981Z,1.00
2018-09-29T07:36:12.255Z,1.50
2018-09-29T07:38:24.494Z,1.00
2018-09-29T07:40:36.706Z,0.97
2018-09-29T07:42:48.979Z,1.10
2018-09-29T07:45:01.247Z,1.17
2018-09-29T07:47:13.482Z,0.80
2018-09-29T07:49:25.741Z,1.00
2018-09-29T07:51:37.960Z,0.93
2018-09-29T07:53:50.208Z,1.07
2018-09-29T07:56:02.520Z,0.80
2018-09-29T07:58:14.772Z,1.33
2018-09-29T08:00:27.080Z,1.10
2018-09-29T08:02:39.394Z,1.40
2018-09-29T08:04:51.664Z,1.60
2018-09-29T08:07:03.894Z,0.93
2018-09-29T08:09:16.174Z,0.90
2018-09-29T08:11:28.444Z,1.43
2018-09-29T08:13:40.776Z,1.27
2018-09-29T08:15:53.035Z,0.87
2018-09-29T08:18:05.343Z,1.33
2018-09-29T08:20:17.582Z,0.97
2018-09-29T08:22:29.933Z,0.93
2018-09-29T08:24:42.268Z,0.80
2018-09-29T08:26:54.486Z,0.90
2018-09-29T08:29:06.688Z,0.70
2018-09-29T08:31:19.528Z,1.20
2018-09-29T08:33:31.792Z,1.10
2018-09-29T08:35:44.215Z,1.33
2018-09-29T08:37:56.642Z,1.20
2018-09-29T08:40:08.830Z,1.07
2018-09-29T08:42:21.020Z,1.20
2018-09-29T08:44:33.298Z,1.00
2018-09-29T08:46:45.581Z,0.87
2018-09-29T08:48:57.890Z,1.13
2018-09-29T08:51:10.208Z,0.97
2018-09-29T08:53:22.508Z,0.80
2018-09-29T08:55:34.671Z,1.00
2018-09-29T08:57:46.866Z,1.17
2018-09-29T08:59:59.135Z,1.10
2018-09-29T09:02:11.390Z,1.07
2018-09-29T09:04:23.675Z,1.27
2018-09-29T09:06:35.918Z,1.10
2018-09-29T09:08:48.151Z,1.20
2018-09-29T09:11:00.451Z,1.00
2018-09-29T09:13:12.671Z,1.10
2018-09-29T09:15:24.946Z,1.00
2018-09-29T09:17:37.178Z,1.27
2018-09-29T09:19:49.395Z,1.00
2018-09-29T09:22:01.688Z,1.13
2018-09-29T09:24:13.962Z,1.00
2018-09-29T09:26:26.510Z,0.73
2018-09-29T09:28:38.858Z,1.20
2018-09-29T09:30:51.084Z,1.17
2018-09-29T09:33:03.322Z,1.13
2018-09-29T09:35:15.591Z,1.10
2018-09-29T09:37:27.820Z,1.10
2018-09-29T09:39:40.095Z,1.33
2018-09-29T09:41:52.424Z,1.07
2018-09-29T09:44:04.915Z,0.80
2018-09-29T09:46:17.155Z,1.20
2018-09-29T09:48:29.442Z,1.10
2018-09-29T09:50:41.659Z,1.00
2018-09-29T09:52:54.173Z,0.90
2018-09-29T09:55:06.415Z,0.90
2018-09-29T09:57:18.624Z,1.17
2018-09-29T09:59:30.928Z,1.13
2018-09-29T10:01:48.891Z,1.30
2018-09-29T10:04:01.159Z,1.10
2018-09-29T10:06:13.429Z,1.40
2018-09-29T10:08:25.659Z,1.23
2018-09-29T10:10:37.927Z,1.17
2018-09-29T10:12:50.187Z,1.10
2018-09-29T10:15:02.492Z,1.57
2018-09-29T10:17:14.780Z,1.90
2018-09-29T10:19:27.052Z,1.73
2018-09-29T10:21:39.368Z,2.60
2018-09-29T10:23:51.634Z,2.80
2018-09-29T10:26:03.986Z,2.40
2018-09-29T10:28:16.276Z,2.67
2018-09-29T10:30:28.517Z,2.33
2018-09-29T10:32:40.791Z,2.37
2018-09-29T10:34:53.020Z,2.67
2018-09-29T10:37:05.283Z,2.50
2018-09-29T10:39:17.499Z,2.47
2018-09-29T10:41:29.706Z,2.73
2018-09-29T10:43:41.941Z,2.60
2018-09-29T10:45:54.190Z,2.53
2018-09-29T10:48:06.475Z,2.43
2018-09-29T10:50:24.527Z,2.60
2018-09-29T10:52:36.783Z,2.80
2018-09-29T10:54:49.039Z,2.60
2018-09-29T10:57:01.253Z,2.83
2018-09-29T10:59:13.598Z,2.73
2018-09-29T11:01:25.856Z,2.50
2018-09-29T11:03:38.192Z,2.80
2018-09-29T11:05:50.525Z,2.80
2018-09-29T11:08:02.789Z,2.80
2018-09-29T11:10:15.044Z,2.87
2018-09-29T11:12:27.324Z,2.93
2018-09-29T11:14:45.604Z,2.73
2018-09-29T11:16:58.146Z,2.70
2018-09-29T11:19:10.351Z,2.97
2018-09-29T11:21:22.611Z,2.97
2018-09-29T11:23:35.542Z,2.40
2018-09-29T11:25:47.763Z,2.53
2018-09-29T11:28:00.030Z,3.00
2018-09-29T11:30:12.263Z,3.00
2018-09-29T11:32:24.544Z,2.50
2018-09-29T11:34:36.759Z,2.87
2018-09-29T11:36:49.065Z,2.57
2018-09-29T11:39:01.313Z,2.77
2018-09-29T11:41:13.642Z,2.53
2018-09-29T11:43:26.000Z,2.43
2018-09-29T11:45:38.621Z,2.93
2018-09-29T11:48:01.627Z,2.57
2018-09-29T11:50:13.968Z,2.50
2018-09-29T11:52:26.207Z,2.53
2018-09-29T11:54:38.483Z,2.20
2018-09-29T11:56:50.723Z,2.50
2018-09-29T11:59:03.053Z,3.00
2018-09-29T12:01:15.339Z,2.63
2018-09-29T12:03:27.610Z,2.70
2018-09-29T12:05:39.903Z,2.53
2018-09-29T12:07:52.258Z,2.03
2018-09-29T12:10:04.569Z,2.00
2018-09-29T12:12:16.792Z,2.57
2018-09-29T12:14:31.000Z,2.57
2018-09-29T12:16:43.317Z,2.40
2018-09-29T12:18:55.590Z,2.03
2018-09-29T12:21:07.912Z,2.70
2018-09-29T12:23:20.134Z,2.57
2018-09-29T12:25:32.351Z,2.60
2018-09-29T12:27:44.963Z,3.00
2018-09-29T12:29:57.300Z,2.40
2018-09-29T12:32:09.499Z,2.70
2018-09-29T12:34:21.771Z,2.73
2018-09-29T12:36:34.022Z,2.80
2018-09-29T12:38:46.240Z,3.00
2018-09-29T12:40:58.454Z,2.40
2018-09-29T12:43:10.713Z,2.70
2018-09-29T12:45:23.002Z,2.90
2018-09-29T12:47:35.291Z,2.33
2018-09-29T12:49:47.492Z,1.97
2018-09-29T12:51:59.824Z,2.90
2018-09-29T12:54:12.017Z,2.60
2018-09-29T12:56:24.539Z,2.47
2018-09-29T12:58:36.736Z,2.80
2018-09-29T13:00:49.037Z,2.50
2018-09-29T13:03:01.263Z,2.50
2018-09-29T13:05:13.535Z,2.40
2018-09-29T13:07:25.764Z,2.40
2018-09-29T13:09:38.655Z,2.33
2018-09-29T13:11:50.880Z,2.43
2018-09-29T13:14:03.249Z,2.33
2018-09-29T13:16:15.454Z,2.47
2018-09-29T13:18:27.705Z,2.07
2018-09-29T13:20:39.984Z,2.73
2018-09-29T13:22:52.233Z,2.53
2018-09-29T13:25:04.499Z,2.07
2018-09-29T13:27:16.800Z,2.30
2018-09-29T13:29:29.105Z,2.13
2018-09-29T13:31:41.374Z,1.87
2018-09-29T13:33:53.602Z,2.37
2018-09-29T13:36:05.836Z,2.30
2018-09-29T13:38:18.031Z,2.13
2018-09-29T13:40:30.296Z,2.33
2018-09-29T13:42:42.567Z,2.47
2018-09-29T13:44:55.005Z,1.90
2018-09-29T13:47:07.280Z,2.07
2018-09-29T13:49:19.616Z,1.80
2018-09-29T13:51:32.402Z,1.50
2018-09-29T13:53:44.664Z,2.57
2018-09-29T13:55:56.928Z,1.53
2018-09-29T13:58:09.214Z,2.20
2018-09-29T14:00:21.460Z,2.00
2018-09-29T14:02:33.735Z,2.10
2018-09-29T14:04:46.018Z,1.77
2018-09-29T14:06:58.215Z,2.10
2018-09-29T14:09:10.697Z,1.90
2018-09-29T14:11:22.983Z,2.07
2018-09-29T14:13:35.225Z,1.80
2018-09-29T14:15:47.481Z,2.43
2018-09-29T14:17:59.740Z,1.80
2018-09-29T14:20:12.049Z,2.00
2018-09-29T14:22:24.270Z,1.97
2018-09-29T14:24:36.443Z,1.80
2018-09-29T14:26:48.816Z,1.87
2018-09-29T14:29:01.039Z,2.33
2018-09-29T14:31:13.308Z,2.00
2018-09-29T14:33:25.552Z,2.00
2018-09-29T14:35:37.848Z,2.03
2018-09-29T14:37:50.111Z,1.80
2018-09-29T14:40:02.289Z,1.77
2018-09-29T14:42:14.523Z,2.20
2018-09-29T14:44:26.695Z,1.80
2018-09-29T14:46:38.967Z,1.90
2018-09-29T14:48:51.175Z,1.83
2018-09-29T14:51:03.407Z,1.87
2018-09-29T14:53:15.647Z,1.70
2018-09-29T14:55:27.903Z,1.63
2018-09-29T14:57:40.146Z,1.73
2018-09-29T14:59:52.362Z,1.37
2018-09-29T15:02:04.572Z,1.90
2018-09-29T15:04:16.883Z,2.00
2018-09-29T15:06:29.251Z,1.73
2018-09-29T15:08:41.677Z,1.67
2018-09-29T15:10:54.059Z,1.70
2018-09-29T15:13:06.139Z,1.97
2018-09-29T15:15:18.387Z,1.70
2018-09-29T15:17:30.600Z,1.50
2018-09-29T15:19:42.860Z,1.80
2018-09-29T15:21:55.108Z,1.87
2018-09-29T15:24:07.318Z,1.43
2018-09-29T15:26:19.588Z,2.20
2018-09-29T15:28:31.879Z,1.87
2018-09-29T15:30:44.192Z,1.70
2018-09-29T15:32:56.402Z,1.40
2018-09-29T15:35:08.754Z,2.17
2018-09-29T15:37:20.973Z,1.60
2018-09-29T15:39:33.230Z,1.70
2018-09-29T15:41:45.475Z,1.60
2018-09-29T15:43:57.727Z,2.03
2018-09-29T15:46:09.987Z,2.23
2018-09-29T15:48:22.227Z,1.90
2018-09-29T15:50:34.466Z,1.90
2018-09-29T15:52:46.935Z,1.67
2018-09-29T15:54:59.221Z,1.80
2018-09-29T15:57:11.462Z,1.33
2018-09-29T15:59:23.737Z,1.60
2018-09-29T16:01:35.973Z,1.80
2018-09-29T16:03:48.251Z,1.80
2018-09-29T16:06:00.687Z,2.37
2018-09-29T16:08:12.974Z,2.17
2018-09-29T16:10:25.199Z,1.70
2018-09-29T16:12:37.480Z,1.50
2018-09-29T16:14:49.752Z,2.13
2018-09-29T16:17:02.033Z,1.63
2018-09-29T16:19:14.289Z,1.83
2018-09-29T16:21:26.690Z,1.80
2018-09-29T16:23:38.947Z,2.07
2018-09-29T16:25:51.219Z,2.00
2018-09-29T16:28:03.538Z,1.70
2018-09-29T16:30:15.807Z,1.70
2018-09-29T16:32:28.046Z,2.10
2018-09-29T16:34:40.283Z,2.00
2018-09-29T16:36:52.607Z,1.70
2018-09-29T16:39:07.867Z,1.87
2018-09-29T16:41:20.207Z,1.70
2018-09-29T16:43:32.544Z,1.70
2018-09-29T16:45:44.790Z,1.60
2018-09-29T16:47:57.020Z,2.10
2018-09-29T16:50:09.281Z,1.80
2018-09-29T16:52:21.503Z,1.90
2018-09-29T16:54:33.727Z,2.10
2018-09-29T16:56:45.954Z,1.70
2018-09-29T16:58:58.208Z,2.00
2018-09-29T17:01:10.503Z,1.80
2018-09-29T17:03:22.886Z,1.90
2018-09-29T17:05:35.119Z,2.10
2018-09-29T17:07:47.439Z,1.83
2018-09-29T17:09:59.758Z,2.00
2018-09-29T17:12:12.012Z,2.10
2018-09-29T17:14:24.343Z,1.60
2018-09-29T17:16:36.620Z,1.77
2018-09-29T17:18:48.877Z,1.70
2018-09-29T17:21:01.225Z,2.07
2018-09-29T17:23:13.466Z,1.50
2018-09-29T17:25:25.767Z,1.70
2018-09-29T17:27:38.289Z,1.73
2018-09-29T17:29:50.550Z,1.33
2018-09-29T17:32:02.838Z,1.23
2018-09-29T17:34:15.126Z,1.70
2018-09-29T17:36:27.425Z,2.20
2018-09-29T17:38:39.700Z,2.80
2018-09-29T17:40:52.012Z,1.80
2018-09-29T17:43:04.273Z,1.63
2018-09-29T17:45:16.587Z,1.53
2018-09-29T17:47:28.834Z,1.73
2018-09-29T17:49:41.103Z,1.40
2018-09-29T17:51:53.447Z,1.50
2018-09-29T17:54:05.707Z,1.87
2018-09-29T17:56:18.023Z,1.90
2018-09-29T17:58:30.459Z,1.87
2018-09-29T18:00:42.803Z,1.70
2018-09-29T18:02:55.025Z,1.40
2018-09-29T18:05:07.338Z,1.73
2018-09-29T18:07:19.615Z,1.97
2018-09-29T18:09:31.851Z,1.90
2018-09-29T18:11:44.109Z,1.90
2018-09-29T18:13:56.335Z,2.03
2018-09-29T18:16:08.578Z,2.00
2018-09-29T18:18:20.826Z,1.70
2018-09-29T18:20:33.219Z,1.57
2018-09-29T18:22:45.485Z,1.63
2018-09-29T18:24:57.772Z,2.00
2018-09-29T18:27:10.411Z,2.23
2018-09-29T18:29:22.623Z,2.77
2018-09-29T18:31:34.947Z,2.20
2018-09-29T18:33:47.202Z,2.27
2018-09-29T18:35:59.481Z,2.50
2018-09-29T18:38:11.750Z,2.63
2018-09-29T18:40:24.000Z,2.10
2018-09-29T18:42:36.342Z,2.00
2018-09-29T18:44:48.642Z,2.33
2018-09-29T18:47:00.947Z,1.80
2018-09-29T18:49:13.185Z,2.10
2018-09-29T18:51:25.404Z,2.20
2018-09-29T18:53:37.683Z,2.00
2018-09-29T18:55:49.968Z,2.00
2018-09-29T18:58:02.295Z,2.10
2018-09-29T19:00:14.593Z,1.97
2018-09-29T19:02:26.841Z,1.90
2018-09-29T19:04:39.134Z,1.80
2018-09-29T19:06:51.370Z,2.03
2018-09-29T19:09:05.386Z,1.80
2018-09-29T19:11:17.644Z,2.30
2018-09-29T19:13:29.892Z,2.20
2018-09-29T19:15:42.128Z,2.43
2018-09-29T19:17:54.350Z,2.47
2018-09-29T19:20:06.635Z,2.40
2018-09-29T19:22:18.855Z,2.23
2018-09-29T19:24:31.185Z,2.00
2018-09-29T19:26:43.538Z,1.97
2018-09-29T19:28:55.776Z,2.27
2018-09-29T19:31:08.070Z,2.00
2018-09-29T19:33:20.268Z,1.73
2018-09-29T19:35:32.567Z,2.30
2018-09-29T19:37:44.834Z,2.40
2018-09-29T19:39:57.088Z,2.23
2018-09-29T19:42:09.378Z,1.90
2018-09-29T19:44:21.639Z,2.10
2018-09-29T19:46:33.899Z,2.37
2018-09-29T19:48:46.160Z,1.93
2018-09-29T19:50:58.379Z,2.10
2018-09-29T19:53:10.672Z,2.40
2018-09-29T19:55:22.855Z,2.53
2018-09-29T19:57:35.084Z,1.70
2018-09-29T19:59:47.445Z,1.93
2018-09-29T20:01:59.742Z,2.00
2018-09-29T20:04:12.104Z,2.20
2018-09-29T20:06:24.398Z,1.90
2018-09-29T20:08:36.679Z,1.90
2018-09-29T20:10:49.023Z,2.10
2018-09-29T20:13:01.316Z,1.70
2018-09-29T20:15:13.581Z,2.00
2018-09-29T20:17:25.831Z,1.80
2018-09-29T20:19:38.115Z,1.80
2018-09-29T20:21:50.387Z,1.93
2018-09-29T20:24:02.650Z,2.20
2018-09-29T20:26:14.918Z,1.80
2018-09-29T20:28:27.221Z,1.70
2018-09-29T20:30:39.603Z,1.80
2018-09-29T20:32:51.791Z,2.00
2018-09-29T20:35:04.006Z,2.03
2018-09-29T20:37:16.310Z,1.63
2018-09-29T20:39:28.528Z,1.83
2018-09-29T20:41:41.560Z,1.87
2018-09-29T20:43:53.832Z,1.87
2018-09-29T20:46:06.583Z,1.90
2018-09-29T20:48:19.158Z,2.00
2018-09-29T20:50:31.368Z,1.80
2018-09-29T20:52:43.623Z,1.80
2018-09-29T20:54:55.906Z,1.87
2018-09-29T20:57:08.114Z,1.47
2018-09-29T20:59:20.326Z,1.63
2018-09-29T21:01:32.640Z,1.90
2018-09-29T21:03:44.822Z,1.93
2018-09-29T21:05:57.060Z,1.83
2018-09-29T21:08:09.739Z,1.80
2018-09-29T21:10:22.008Z,1.80
2018-09-29T21:12:34.219Z,1.47
2018-09-29T21:14:46.721Z,1.80
2018-09-29T21:16:58.924Z,1.93
2018-09-29T21:19:11.217Z,1.80
2018-09-29T21:21:23.443Z,1.40
2018-09-29T21:23:35.732Z,1.60
2018-09-29T21:25:48.003Z,1.50
2018-09-29T21:28:00.278Z,1.67
2018-09-29T21:30:12.520Z,1.70
2018-09-29T21:32:24.827Z,1.63
2018-09-29T21:34:37.003Z,1.90
2018-09-29T21:36:49.329Z,1.90
2018-09-29T21:39:01.543Z,1.80
2018-09-29T21:41:13.790Z,1.97
2018-09-29T21:43:26.019Z,2.00
2018-09-29T21:45:38.354Z,2.03
2018-09-29T21:47:50.567Z,2.37
2018-09-29T21:50:02.769Z,1.80
2018-09-29T21:52:15.001Z,1.87
2018-09-29T21:54:27.195Z,2.40
2018-09-29T21:56:39.401Z,2.10
2018-09-29T21:58:51.666Z,1.87
2018-09-29T22:01:09.382Z,1.83
2018-09-29T22:03:21.599Z,1.80
2018-09-29T22:05:33.867Z,1.80
2018-09-29T22:07:46.079Z,1.80
2018-09-29T22:09:58.284Z,2.20
2018-09-29T22:12:10.541Z,2.30
2018-09-29T22:14:22.807Z,2.47
2018-09-29T22:16:35.044Z,2.80
2018-09-29T22:18:47.310Z,2.43
2018-09-29T22:20:59.634Z,2.90
2018-09-29T22:23:11.815Z,3.23
2018-09-29T22:25:24.002Z,2.47
2018-09-29T22:27:36.228Z,2.00
2018-09-29T22:29:48.444Z,2.70
2018-09-29T22:32:00.670Z,3.30
2018-09-29T22:34:12.867Z,3.50
2018-09-29T22:36:25.202Z,3.47
2018-09-29T22:38:37.419Z,3.80
2018-09-29T22:40:49.628Z,3.97
2018-09-29T22:43:01.898Z,4.20
2018-09-29T22:45:14.102Z,3.60
2018-09-29T22:47:26.367Z,4.00
2018-09-29T22:49:38.565Z,3.80
2018-09-29T22:51:50.800Z,3.13
2018-09-29T22:54:03.319Z,3.50
2018-09-29T22:56:15.500Z,3.30
2018-09-29T22:58:27.812Z,3.60
2018-09-29T23:00:40.135Z,3.30
2018-09-29T23:02:52.375Z,2.83
2018-09-29T23:05:04.634Z,3.03
2018-09-29T23:07:16.836Z,2.77
2018-09-29T23:09:29.104Z,2.90
2018-09-29T23:11:41.480Z,2.60
2018-09-29T23:13:53.680Z,2.40
2018-09-29T23:16:05.974Z,3.47
2018-09-29T23:18:18.154Z,3.00
2018-09-29T23:20:30.379Z,2.70
2018-09-29T23:22:42.581Z,2.70
2018-09-29T23:24:54.794Z,2.67
2018-09-29T23:27:07.012Z,2.60
2018-09-29T23:29:19.195Z,2.53
2018-09-29T23:31:31.397Z,2.53
2018-09-29T23:33:43.641Z,3.00
2018-09-29T23:35:55.843Z,2.60
2018-09-29T23:38:08.072Z,2.40
2018-09-29T23:40:20.271Z,2.67
2018-09-29T23:42:32.609Z,2.10
2018-09-29T23:44:44.878Z,2.07
2018-09-29T23:46:57.075Z,1.90
2018-09-29T23:49:09.275Z,1.80
2018-09-29T23:51:21.458Z,2.50
2018-09-29T23:53:33.667Z,2.40
2018-09-29T23:55:45.898Z,2.10
2018-09-29T23:57:58.146Z,2.00
